Time;durP1;ratioP1;P1;durP2;ratioP2;P2;SDS_P1;SDS_P2;PMS_P1;PMS_P2;Temp;Humidity;BMP_temperature;BMP_pressure;BME280_temperature;BME280_humidity;BME280_pressure;Samples;Min_cycle;Max_cycle;Signal;HPM_P1;HPM_P2
2023/03/11 00:00:13;;;;;;;89.10;49.15;;;9.00;99.90;;;;;;5070354;28;20028;-78
2023/03/11 00:02:39;;;;;;;90.63;44.78;;;9.00;99.90;;;;;;5053477;28;20032;-78
2023/03/11 00:05:06;;;;;;;91.43;48.60;;;9.00;99.90;;;;;;5053469;28;20100;-76
2023/03/11 00:07:32;;;;;;;91.63;49.22;;;9.00;99.90;;;;;;5053082;28;20033;-80
2023/03/11 00:09:58;;;;;;;86.65;41.33;;;9.00;99.90;;;;;;5054069;28;20154;-80
2023/03/11 00:12:24;;;;;;;90.85;45.75;;;9.00;99.90;;;;;;5052651;28;20037;-79
2023/03/11 00:14:50;;;;;;;91.82;44.38;;;9.10;99.90;;;;;;5052707;28;20435;-80
2023/03/11 00:17:16;;;;;;;91.43;43.33;;;9.20;99.90;;;;;;5051641;28;20070;-78
2023/03/11 00:19:41;;;;;;;84.05;38.70;;;9.30;99.90;;;;;;5052537;28;20025;-77
2023/03/11 00:22:07;;;;;;;53.45;28.35;;;9.30;99.90;;;;;;5051529;28;20025;-77
2023/03/11 00:24:33;;;;;;;47.30;23.45;;;9.40;99.90;;;;;;5052489;28;20021;-78
2023/03/11 00:26:59;;;;;;;39.22;19.60;;;9.50;99.90;;;;;;5051945;28;20060;-77
2023/03/11 00:29:25;;;;;;;44.58;22.95;;;9.60;99.90;;;;;;5051220;28;20434;-77
2023/03/11 00:31:50;;;;;;;54.17;24.33;;;9.70;99.90;;;;;;5052824;28;20027;-77
2023/03/11 00:34:16;;;;;;;39.05;18.58;;;9.70;99.90;;;;;;5055860;28;20198;-79
2023/03/11 00:36:42;;;;;;;57.67;25.20;;;9.80;99.90;;;;;;5054802;28;20031;-77
2023/03/11 00:39:09;;;;;;;93.55;36.05;;;9.80;99.90;;;;;;5056519;28;20099;-78
2023/03/11 00:41:36;;;;;;;49.90;22.35;;;9.90;99.90;;;;;;5056576;28;20359;-79
2023/03/11 00:44:02;;;;;;;61.30;26.80;;;9.90;99.90;;;;;;5055305;28;20028;-78
2023/03/11 00:46:29;;;;;;;88.82;35.38;;;10.00;99.90;;;;;;5056495;28;20033;-78
2023/03/11 00:48:55;;;;;;;58.90;27.10;;;10.00;99.90;;;;;;5054827;28;20486;-79
2023/03/11 00:51:21;;;;;;;58.30;25.10;;;10.10;99.90;;;;;;5056390;28;20336;-80
2023/03/11 00:53:47;;;;;;;47.13;20.50;;;10.00;99.90;;;;;;5056294;28;20482;-76
2023/03/11 00:56:14;;;;;;;49.67;21.42;;;10.10;99.90;;;;;;5054891;28;20029;-78
2023/03/11 00:58:42;;;;;;;65.95;29.42;;;10.10;99.90;;;;;;5054534;28;20474;-78
2023/03/11 01:01:13;;;;;;;51.60;23.17;;;10.10;99.90;;;;;;5056259;28;20013;-79
2023/03/11 01:03:40;;;;;;;46.47;22.03;;;10.10;99.90;;;;;;5055466;28;20368;-78
2023/03/11 01:06:06;;;;;;;68.32;26.02;;;10.10;99.90;;;;;;5056312;28;20032;-80
2023/03/11 01:08:32;;;;;;;87.05;34.35;;;10.00;99.90;;;;;;5055810;28;20024;-77
2023/03/11 01:10:58;;;;;;;72.35;28.42;;;10.10;99.90;;;;;;5055755;28;20513;-78
2023/03/11 01:13:25;;;;;;;45.92;20.88;;;10.00;99.90;;;;;;5055742;28;20037;-77
2023/03/11 01:15:51;;;;;;;33.53;14.52;;;10.10;99.90;;;;;;5055687;28;20045;-80
2023/03/11 01:18:16;;;;;;;52.92;22.63;;;10.00;99.90;;;;;;5054020;28;20463;-80
2023/03/11 01:20:42;;;;;;;40.25;16.63;;;10.10;99.90;;;;;;5054723;28;20056;-77
2023/03/11 01:23:08;;;;;;;57.45;23.30;;;10.00;99.90;;;;;;5055547;28;20418;-79
2023/03/11 01:25:35;;;;;;;50.50;21.17;;;10.10;99.90;;;;;;5055482;28;20104;-78
2023/03/11 01:28:00;;;;;;;58.38;22.80;;;10.00;99.90;;;;;;5055919;28;20029;-78
2023/03/11 01:30:28;;;;;;;43.53;17.83;;;10.00;99.90;;;;;;5055432;28;20071;-80
2023/03/11 01:32:55;;;;;;;79.50;33.35;;;10.00;99.90;;;;;;5055082;28;20104;-77
2023/03/11 01:35:23;;;;;;;88.50;36.80;;;10.00;99.90;;;;;;5054151;28;20408;-79
2023/03/11 01:37:49;;;;;;;53.67;24.17;;;10.00;99.90;;;;;;5055002;28;20433;-79
2023/03/11 01:40:24;;;;;;;72.18;32.25;;;9.90;99.90;;;;;;5055222;28;20021;-78
2023/03/11 01:42:50;;;;;;;52.17;20.92;;;9.80;99.90;;;;;;5055753;28;20048;-77
2023/03/11 01:45:34;;;;;;;48.97;17.75;;;9.80;99.90;;;;;;5054962;28;20049;-80
2023/03/11 01:48:00;;;;;;;33.85;13.40;;;9.80;99.90;;;;;;5055313;28;20035;-77
2023/03/11 01:50:33;;;;;;;36.10;14.85;;;9.80;99.90;;;;;;5055034;28;20371;-78
2023/03/11 01:52:59;;;;;;;39.85;17.67;;;9.80;99.90;;;;;;5055024;28;20025;-77
2023/03/11 01:55:26;;;;;;;61.28;25.52;;;9.70;99.90;;;;;;5055190;28;20032;-78
2023/03/11 01:57:53;;;;;;;59.17;23.02;;;9.70;99.90;;;;;;5055240;28;20052;-78
2023/03/11 02:00:19;;;;;;;119.85;43.20;;;9.80;99.90;;;;;;5054838;28;20422;-78
2023/03/11 02:02:50;;;;;;;62.03;30.77;;;9.80;99.90;;;;;;5055072;28;20025;-78
2023/03/11 02:05:18;;;;;;;33.47;15.18;;;9.80;99.90;;;;;;5055252;28;20021;-78
2023/03/11 02:07:45;;;;;;;22.95;13.10;;;9.70;99.90;;;;;;5054393;28;20041;-78
2023/03/11 02:10:12;;;;;;;28.13;12.30;;;9.70;99.90;;;;;;5055026;28;20024;-79
2023/03/11 02:12:38;;;;;;;26.08;14.20;;;9.70;99.90;;;;;;5052965;28;20037;-78
2023/03/11 02:15:06;;;;;;;22.17;10.98;;;9.70;99.90;;;;;;5054928;28;20068;-80
2023/03/11 02:17:33;;;;;;;20.02;9.70;;;9.70;99.90;;;;;;5055185;28;20029;-80
2023/03/11 02:20:23;;;;;;;19.80;9.90;;;9.60;99.90;;;;;;5053188;28;20075;-77
2023/03/11 02:22:49;;;;;;;23.60;11.20;;;9.60;99.90;;;;;;5053628;28;20482;-77
2023/03/11 02:25:36;;;;;;;20.67;10.15;;;9.50;99.90;;;;;;5053083;28;20074;-78
2023/03/11 02:28:04;;;;;;;25.45;12.32;;;9.50;99.90;;;;;;5054007;28;20363;-79
2023/03/11 02:30:31;;;;;;;19.38;10.93;;;9.50;99.90;;;;;;5054355;28;20048;-78
2023/03/11 02:32:58;;;;;;;20.05;9.73;;;9.40;99.90;;;;;;5054527;28;20158;-79
2023/03/11 02:35:25;;;;;;;20.85;9.70;;;9.50;99.90;;;;;;5053928;28;20465;-77
2023/03/11 02:37:52;;;;;;;19.90;8.93;;;9.40;99.90;;;;;;5054680;28;20029;-80
2023/03/11 02:40:21;;;;;;;13.68;7.95;;;9.40;99.90;;;;;;5054504;28;20075;-79
2023/03/11 02:42:47;;;;;;;17.45;7.45;;;9.40;99.90;;;;;;5054249;28;20025;-78
2023/03/11 02:45:17;;;;;;;16.52;7.57;;;9.40;99.90;;;;;;5054366;28;20028;-77
2023/03/11 02:47:43;;;;;;;16.08;6.88;;;9.30;99.90;;;;;;5052575;28;20025;-79
2023/03/11 02:50:12;;;;;;;12.68;5.68;;;9.30;99.90;;;;;;5053876;28;20047;-78
2023/03/11 02:52:38;;;;;;;15.27;6.10;;;9.30;99.90;;;;;;5052881;28;20029;-77
2023/03/11 02:55:05;;;;;;;17.45;8.57;;;9.30;99.90;;;;;;5053916;28;20032;-79
2023/03/11 02:57:30;;;;;;;25.50;12.80;;;9.30;99.90;;;;;;5053975;28;20091;-80
2023/03/11 02:59:56;;;;;;;27.70;14.50;;;9.30;99.90;;;;;;5052359;28;20024;-79
2023/03/11 03:02:22;;;;;;;31.25;14.90;;;9.20;99.90;;;;;;5053596;28;20028;-79
2023/03/11 03:04:47;;;;;;;24.23;11.43;;;9.20;99.90;;;;;;5053598;28;20036;-77
2023/03/11 03:07:13;;;;;;;22.65;11.38;;;9.20;99.90;;;;;;5053579;28;20114;-78
2023/03/11 03:09:39;;;;;;;29.67;14.05;;;9.20;99.90;;;;;;5053163;28;20036;-79
2023/03/11 03:12:05;;;;;;;28.35;14.88;;;9.20;99.90;;;;;;5052382;28;20076;-78
2023/03/11 03:14:31;;;;;;;28.60;14.35;;;9.10;99.90;;;;;;5053740;28;20021;-77
2023/03/11 03:16:57;;;;;;;23.33;10.50;;;9.00;99.90;;;;;;5053153;28;20051;-78
2023/03/11 03:19:23;;;;;;;20.20;9.93;;;9.00;99.90;;;;;;5053679;28;20031;-79
2023/03/11 03:21:48;;;;;;;25.45;11.00;;;9.00;99.90;;;;;;5052339;28;20029;-80
2023/03/11 03:24:14;;;;;;;22.23;10.00;;;9.00;99.90;;;;;;5051926;28;20402;-80
2023/03/11 03:26:40;;;;;;;19.85;10.35;;;9.00;99.90;;;;;;5053459;28;20040;-79
2023/03/11 03:29:06;;;;;;;19.65;9.23;;;9.00;99.90;;;;;;5053613;28;20451;-79
2023/03/11 03:31:32;;;;;;;17.05;9.18;;;9.10;99.90;;;;;;5053407;28;20021;-80
2023/03/11 03:33:58;;;;;;;19.10;9.40;;;9.00;99.90;;;;;;5052147;28;20032;-79
2023/03/11 03:36:23;;;;;;;17.02;9.43;;;9.10;99.90;;;;;;5052044;28;20040;-78
2023/03/11 03:38:54;;;;;;;18.48;10.48;;;9.10;99.90;;;;;;5051763;28;20020;-79
2023/03/11 03:41:20;;;;;;;27.67;12.38;;;9.20;99.90;;;;;;5053047;28;20029;-78
2023/03/11 03:43:45;;;;;;;20.38;11.10;;;9.20;99.90;;;;;;5053010;28;20431;-79
2023/03/11 03:46:11;;;;;;;20.58;11.10;;;9.20;99.90;;;;;;5051882;28;20049;-77
2023/03/11 03:48:37;;;;;;;16.13;10.70;;;9.20;99.90;;;;;;5051953;28;20474;-78
2023/03/11 03:51:09;;;;;;;24.05;11.30;;;9.20;99.90;;;;;;5052635;28;20040;-77
2023/03/11 03:53:35;;;;;;;27.60;13.52;;;9.20;99.90;;;;;;5053276;28;20478;-78
2023/03/11 03:56:06;;;;;;;24.90;14.45;;;9.20;99.90;;;;;;5052631;28;20379;-80
2023/03/11 03:58:32;;;;;;;26.73;14.80;;;9.30;99.90;;;;;;5052507;28;20021;-79
2023/03/11 04:00:58;;;;;;;28.58;12.98;;;9.30;99.90;;;;;;5053393;28;20031;-80
2023/03/11 04:03:25;;;;;;;22.48;13.75;;;9.30;99.90;;;;;;5053135;28;20377;-79
2023/03/11 04:05:50;;;;;;;24.58;12.60;;;9.30;99.90;;;;;;5052729;28;20017;-81
2023/03/11 04:08:16;;;;;;;24.25;13.98;;;9.30;99.90;;;;;;5054511;28;20079;-79
2023/03/11 04:10:42;;;;;;;24.25;14.15;;;9.30;99.90;;;;;;5055854;28;20359;-77
2023/03/11 04:13:08;;;;;;;21.70;13.15;;;9.40;99.90;;;;;;5056844;28;20067;-79
2023/03/11 04:15:33;;;;;;;25.48;14.18;;;9.40;99.90;;;;;;5057269;28;20021;-78
2023/03/11 04:17:59;;;;;;;26.67;13.77;;;9.40;99.90;;;;;;5057477;28;20455;-79
2023/03/11 04:20:25;;;;;;;26.25;14.13;;;9.40;99.90;;;;;;5056425;28;20025;-77
2023/03/11 04:22:50;;;;;;;32.08;16.27;;;9.40;99.90;;;;;;5055762;28;20017;-78
2023/03/11 04:25:16;;;;;;;32.38;16.80;;;9.40;99.90;;;;;;5056682;28;20029;-78
2023/03/11 04:27:44;;;;;;;30.92;17.05;;;9.50;99.90;;;;;;5056531;28;20020;-77
2023/03/11 04:30:11;;;;;;;40.45;23.77;;;9.40;99.90;;;;;;5056922;28;20468;-78
2023/03/11 04:32:37;;;;;;;61.40;35.45;;;9.40;99.90;;;;;;5056895;28;20044;-78
2023/03/11 04:35:04;;;;;;;61.72;35.53;;;9.40;99.90;;;;;;5055485;28;20451;-80
2023/03/11 04:37:30;;;;;;;55.33;26.92;;;9.50;99.90;;;;;;5056690;28;20033;-79
2023/03/11 04:39:55;;;;;;;50.85;29.25;;;9.40;99.90;;;;;;5056379;28;20031;-78
2023/03/11 04:42:21;;;;;;;58.00;31.92;;;9.40;99.90;;;;;;5056328;28;20035;-78
2023/03/11 04:44:47;;;;;;;65.32;36.28;;;9.40;99.90;;;;;;5056324;28;20021;-80
2023/03/11 04:47:13;;;;;;;73.47;37.75;;;9.50;99.90;;;;;;5054821;28;20607;-80
2023/03/11 04:49:38;;;;;;;69.65;37.78;;;9.50;99.90;;;;;;5056285;28;20017;-78
2023/03/11 04:52:04;;;;;;;68.53;36.08;;;9.50;99.90;;;;;;5055199;28;20021;-78
2023/03/11 04:54:30;;;;;;;65.10;34.97;;;9.50;99.90;;;;;;5055802;28;20071;-78
2023/03/11 04:56:55;;;;;;;58.97;33.25;;;9.50;99.90;;;;;;5055116;28;20090;-78
2023/03/11 04:59:21;;;;;;;72.47;35.58;;;9.50;99.90;;;;;;5055780;28;20017;-77
2023/03/11 05:01:47;;;;;;;67.32;36.45;;;9.50;99.90;;;;;;5054800;28;20413;-77
2023/03/11 05:04:12;;;;;;;124.68;57.83;;;9.50;99.90;;;;;;5055808;28;20025;-79
2023/03/11 05:06:38;;;;;;;89.05;45.38;;;9.40;99.90;;;;;;5056259;28;20411;-78
2023/03/11 05:09:04;;;;;;;77.80;42.95;;;9.40;99.90;;;;;;5054649;28;20036;-79
2023/03/11 05:11:30;;;;;;;71.10;39.80;;;9.40;99.90;;;;;;5054855;28;20021;-80
2023/03/11 05:13:56;;;;;;;73.55;39.65;;;9.50;99.90;;;;;;5056207;28;20467;-78
2023/03/11 05:16:21;;;;;;;68.32;38.17;;;9.50;99.90;;;;;;5054381;28;20028;-77
2023/03/11 05:18:47;;;;;;;77.55;40.50;;;9.60;99.90;;;;;;5055497;28;20028;-79
2023/03/11 05:21:13;;;;;;;86.65;46.63;;;9.60;99.90;;;;;;5055524;28;20021;-81
2023/03/11 05:23:39;;;;;;;87.18;45.22;;;9.60;99.90;;;;;;5054806;28;20032;-78
2023/03/11 05:26:05;;;;;;;86.88;44.75;;;9.60;99.90;;;;;;5056033;28;20040;-81
2023/03/11 05:28:31;;;;;;;99.35;48.60;;;9.60;99.90;;;;;;5055167;28;20379;-85
2023/03/11 05:30:57;;;;;;;132.73;55.65;;;9.60;99.90;;;;;;5058564;28;20025;-78
2023/03/11 05:33:23;;;;;;;135.57;59.95;;;9.50;99.90;;;;;;5056399;28;20025;-79
2023/03/11 05:35:50;;;;;;;107.63;48.10;;;9.50;99.90;;;;;;5055828;28;20586;-80
2023/03/11 05:38:16;;;;;;;87.70;44.15;;;9.40;99.90;;;;;;5056494;28;20021;-80
2023/03/11 05:40:42;;;;;;;78.68;40.72;;;9.40;99.90;;;;;;5056285;28;20074;-80
2023/03/11 05:43:08;;;;;;;68.10;32.35;;;9.40;99.90;;;;;;5055590;28;20057;-79
2023/03/11 05:45:33;;;;;;;75.10;31.23;;;9.50;99.90;;;;;;5054950;28;20029;-81
2023/03/11 05:47:59;;;;;;;48.65;23.25;;;9.50;99.90;;;;;;5054759;28;20025;-81
2023/03/11 05:50:25;;;;;;;46.10;19.90;;;9.50;99.90;;;;;;5054516;28;20028;-80
2023/03/11 05:52:50;;;;;;;37.05;19.77;;;9.60;99.90;;;;;;5054757;28;20060;-81
2023/03/11 05:55:16;;;;;;;82.80;34.47;;;9.60;99.90;;;;;;5055961;28;20032;-80
2023/03/11 05:57:42;;;;;;;58.60;28.08;;;9.70;99.90;;;;;;5054360;28;20037;-81
2023/03/11 06:00:12;;;;;;;26.40;13.15;;;9.70;99.90;;;;;;5055072;28;20024;-81
2023/03/11 06:02:39;;;;;;;34.90;15.75;;;9.80;99.90;;;;;;5055173;28;20021;-80
2023/03/11 06:05:06;;;;;;;72.35;30.25;;;9.80;99.90;;;;;;5053427;28;20121;-79
2023/03/11 06:07:34;;;;;;;24.88;11.93;;;9.80;99.90;;;;;;5054791;28;20056;-78
2023/03/11 06:09:59;;;;;;;21.35;8.70;;;9.60;99.90;;;;;;5054618;28;20426;-79
2023/03/11 06:12:25;;;;;;;17.95;10.23;;;9.60;99.90;;;;;;5054123;28;20171;-77
2023/03/11 06:14:53;;;;;;;13.55;5.53;;;9.60;99.90;;;;;;5054598;28;20017;-78
2023/03/11 06:17:18;;;;;;;14.43;7.68;;;9.60;99.90;;;;;;5053784;28;20021;-79
2023/03/11 06:19:44;;;;;;;31.48;13.65;;;9.60;99.90;;;;;;5055094;28;20519;-78
2023/03/11 06:22:10;;;;;;;36.65;18.02;;;9.60;99.90;;;;;;5055181;28;20024;-78
2023/03/11 06:24:36;;;;;;;41.60;22.15;;;9.60;99.90;;;;;;5053855;28;20398;-79
2023/03/11 06:27:02;;;;;;;27.27;14.80;;;9.60;99.90;;;;;;5055100;28;20402;-77
2023/03/11 06:29:28;;;;;;;21.92;12.43;;;9.60;99.90;;;;;;5053760;28;20028;-78
2023/03/11 06:31:54;;;;;;;23.27;12.10;;;9.60;99.90;;;;;;5052840;28;20032;-77
2023/03/11 06:34:20;;;;;;;47.28;18.73;;;9.60;99.90;;;;;;5054996;28;20029;-79
2023/03/11 06:36:46;;;;;;;62.20;21.50;;;9.50;99.90;;;;;;5053907;28;20029;-78
2023/03/11 06:39:14;;;;;;;61.78;23.13;;;9.50;99.90;;;;;;5054832;28;20109;-80
2023/03/11 06:41:40;;;;;;;36.88;21.25;;;9.40;99.90;;;;;;5055059;28;20021;-77
2023/03/11 06:44:06;;;;;;;40.50;18.13;;;9.40;99.90;;;;;;5054761;28;20348;-78
2023/03/11 06:46:32;;;;;;;47.15;22.10;;;9.30;99.90;;;;;;5054347;28;20047;-78
2023/03/11 06:48:58;;;;;;;39.53;20.58;;;9.30;99.90;;;;;;5055000;28;20082;-77
2023/03/11 06:51:23;;;;;;;22.38;13.73;;;9.40;99.90;;;;;;5053642;28;20114;-77
2023/03/11 06:53:51;;;;;;;16.35;7.82;;;9.40;99.90;;;;;;5054565;28;20048;-78
2023/03/11 06:56:17;;;;;;;19.63;9.48;;;9.40;99.90;;;;;;5054800;28;20024;-78
2023/03/11 06:58:44;;;;;;;14.65;8.02;;;9.30;99.90;;;;;;5054496;28;20032;-78
2023/03/11 07:01:13;;;;;;;18.13;8.35;;;9.40;99.90;;;;;;5054134;28;20036;-81
2023/03/11 07:03:39;;;;;;;13.40;5.60;;;9.40;99.90;;;;;;5054765;28;20460;-78
2023/03/11 07:06:06;;;;;;;15.57;6.03;;;9.40;99.90;;;;;;5053345;28;20336;-80
2023/03/11 07:08:32;;;;;;;13.82;6.70;;;9.40;99.90;;;;;;5054200;28;20033;-81
2023/03/11 07:11:06;;;;;;;14.45;6.78;;;9.30;99.90;;;;;;5054338;28;20032;-81
2023/03/11 07:13:32;;;;;;;18.95;9.23;;;9.40;99.90;;;;;;5053537;28;20044;-79
2023/03/11 07:16:00;;;;;;;16.65;7.72;;;9.40;99.90;;;;;;5054459;28;20444;-81
2023/03/11 07:18:26;;;;;;;20.30;7.53;;;9.40;99.90;;;;;;5054162;28;20032;-81
2023/03/11 07:20:53;;;;;;;15.82;5.35;;;9.30;99.90;;;;;;5052505;28;20049;-81
2023/03/11 07:23:19;;;;;;;31.88;11.48;;;9.30;99.90;;;;;;5054063;28;20021;-79
2023/03/11 07:25:46;;;;;;;20.50;7.80;;;9.30;99.90;;;;;;5054436;28;20048;-81
2023/03/11 07:28:11;;;;;;;61.47;18.50;;;9.20;99.90;;;;;;5053882;28;20041;-78
2023/03/11 07:30:38;;;;;;;86.90;28.42;;;9.20;99.90;;;;;;5053889;28;20021;-80
2023/03/11 07:33:04;;;;;;;15.52;7.60;;;9.20;99.90;;;;;;5054192;28;20029;-80
2023/03/11 07:35:30;;;;;;;30.50;17.35;;;9.20;99.90;;;;;;5053584;28;20032;-79
2023/03/11 07:37:55;;;;;;;33.22;19.80;;;9.30;99.90;;;;;;5054143;28;20027;-79
2023/03/11 07:40:21;;;;;;;38.38;20.35;;;9.30;99.90;;;;;;5052564;28;20016;-80
2023/03/11 07:42:47;;;;;;;33.90;16.65;;;9.40;99.90;;;;;;5052368;28;20119;-79
2023/03/11 07:45:13;;;;;;;27.92;14.23;;;9.40;99.90;;;;;;5053783;28;20359;-78
2023/03/11 07:47:38;;;;;;;29.25;14.35;;;9.40;99.90;;;;;;5053886;28;20025;-78
2023/03/11 07:50:04;;;;;;;32.05;17.67;;;9.40;99.90;;;;;;5053921;28;20017;-78
2023/03/11 07:52:30;;;;;;;62.53;33.38;;;9.50;99.90;;;;;;5053404;28;20051;-78
2023/03/11 07:54:56;;;;;;;85.22;44.33;;;9.50;99.90;;;;;;5053479;28;20017;-80
2023/03/11 07:57:22;;;;;;;73.30;30.13;;;9.50;99.90;;;;;;5053217;28;20032;-79
2023/03/11 07:59:48;;;;;;;84.47;34.60;;;9.50;99.90;;;;;;5052567;28;20033;-78
2023/03/11 08:02:13;;;;;;;135.95;59.95;;;9.50;99.90;;;;;;5053860;28;20447;-77
2023/03/11 08:04:40;;;;;;;125.78;53.40;;;9.60;99.90;;;;;;5053561;28;20028;-80
2023/03/11 08:07:06;;;;;;;63.20;30.38;;;9.60;99.90;;;;;;5053656;28;20075;-80
2023/03/11 08:09:34;;;;;;;44.55;21.20;;;9.70;99.90;;;;;;5053391;28;20406;-78
2023/03/11 08:11:59;;;;;;;34.80;17.27;;;9.60;99.90;;;;;;5053570;28;20099;-80
2023/03/11 08:14:25;;;;;;;45.13;22.75;;;9.60;99.90;;;;;;5053767;28;20025;-80
2023/03/11 08:16:51;;;;;;;51.78;28.17;;;9.60;99.90;;;;;;5052063;28;20448;-80
2023/03/11 08:19:17;;;;;;;56.03;29.10;;;9.60;99.90;;;;;;5053626;28;20030;-81
2023/03/11 08:21:42;;;;;;;68.47;37.55;;;9.60;99.90;;;;;;5053621;28;20025;-79
2023/03/11 08:24:12;;;;;;;67.25;32.40;;;9.60;99.90;;;;;;5051992;28;20017;-80
2023/03/11 08:26:39;;;;;;;56.40;26.83;;;9.50;99.90;;;;;;5053226;28;20115;-80
2023/03/11 08:29:05;;;;;;;44.33;20.33;;;9.40;99.90;;;;;;5053761;28;20060;-79
2023/03/11 08:31:33;;;;;;;205.02;71.93;;;9.40;99.90;;;;;;5051727;28;20055;-76
2023/03/11 08:34:02;;;;;;;36.85;17.00;;;9.40;99.90;;;;;;5053563;28;20017;-76
2023/03/11 08:36:29;;;;;;;34.00;16.40;;;9.30;99.90;;;;;;5053436;28;20029;-77
2023/03/11 08:38:55;;;;;;;38.63;19.83;;;9.20;99.90;;;;;;5051994;28;20367;-77
2023/03/11 08:41:20;;;;;;;48.60;21.70;;;9.20;99.90;;;;;;5053444;28;20474;-80
2023/03/11 08:43:46;;;;;;;45.65;23.17;;;9.10;99.90;;;;;;5053310;28;20017;-80
2023/03/11 08:46:23;;;;;;;19.52;10.07;;;9.10;99.90;;;;;;5053121;28;20096;-81
2023/03/11 08:48:48;;;;;;;45.75;19.80;;;8.90;99.90;;;;;;5052122;28;20025;-79
2023/03/11 08:51:14;;;;;;;35.58;17.27;;;8.90;99.90;;;;;;5053576;28;20021;-80
2023/03/11 08:53:40;;;;;;;28.35;12.85;;;8.80;99.90;;;;;;5053272;28;20036;-83
2023/03/11 08:56:06;;;;;;;41.03;17.52;;;8.80;99.90;;;;;;5054622;28;20025;-79
2023/03/11 08:58:32;;;;;;;27.58;12.73;;;8.70;99.90;;;;;;5056767;28;20452;-79
2023/03/11 09:00:58;;;;;;;22.58;10.35;;;8.60;99.90;;;;;;5057489;28;20028;-78
2023/03/11 09:03:25;;;;;;;14.13;6.60;;;8.50;99.90;;;;;;5056651;28;20067;-79
2023/03/11 09:05:59;;;;;;;14.57;6.85;;;8.30;99.90;;;;;;5055095;28;20451;-78
2023/03/11 09:08:25;;;;;;;22.27;8.50;;;8.10;99.90;;;;;;5056462;28;20112;-79
2023/03/11 09:10:51;;;;;;;28.92;10.52;;;7.90;99.90;;;;;;5055456;28;20111;-81
2023/03/11 09:13:17;;;;;;;19.23;8.57;;;7.70;99.90;;;;;;5054693;28;20056;-80
2023/03/11 09:15:42;;;;;;;19.42;7.95;;;7.60;99.90;;;;;;5056757;28;20075;-80
2023/03/11 09:18:12;;;;;;;20.77;9.38;;;7.50;99.90;;;;;;5054934;28;20029;-78
2023/03/11 09:20:38;;;;;;;9.70;8.23;;;7.40;99.90;;;;;;5055990;28;20052;-77
2023/03/11 09:23:04;;;;;;;21.52;8.90;;;7.20;99.90;;;;;;5055349;28;20028;-78
2023/03/11 09:25:30;;;;;;;18.50;8.88;;;7.20;99.90;;;;;;5056588;28;20025;-78
2023/03/11 09:27:56;;;;;;;15.07;7.00;;;7.20;99.90;;;;;;5055908;28;20373;-80
2023/03/11 09:30:21;;;;;;;18.40;9.18;;;7.00;99.90;;;;;;5056558;28;20083;-79
2023/03/11 09:32:47;;;;;;;24.83;11.05;;;7.00;99.90;;;;;;5056851;28;20028;-78
2023/03/11 09:35:13;;;;;;;31.98;11.95;;;7.00;99.90;;;;;;5055767;28;20464;-80
2023/03/11 09:37:38;;;;;;;22.00;8.57;;;6.80;99.90;;;;;;5055031;28;20074;-81
2023/03/11 09:40:05;;;;;;;26.02;7.72;;;6.60;99.90;;;;;;5055051;28;20071;-80
2023/03/11 09:42:46;;;;;;;68.40;22.05;;;6.40;99.90;;;;;;5055718;28;20025;-81
2023/03/11 09:45:26;;;;;;;72.53;24.23;;;6.30;99.90;;;;;;5055993;28;20447;-82
2023/03/11 09:47:52;;;;;;;58.70;21.38;;;6.40;99.90;;;;;;5056107;28;20072;-81
2023/03/11 09:50:28;;;;;;;31.77;11.27;;;6.30;99.90;;;;;;5055803;28;20053;-79
2023/03/11 09:53:17;;;;;;;45.53;14.68;;;6.30;99.90;;;;;;5055878;28;20459;-77
2023/03/11 09:55:50;;;;;;;60.90;22.60;;;6.30;99.90;;;;;;5054590;28;20021;-80
2023/03/11 09:58:44;;;;;;;25.33;11.50;;;6.30;99.90;;;;;;5056259;28;20104;-78
2023/03/11 10:01:20;;;;;;;60.33;18.50;;;6.30;99.90;;;;;;5048349;28;20124;-81
2023/03/11 10:03:47;;;;;;;33.20;11.50;;;6.30;99.90;;;;;;5055517;28;20048;-78
2023/03/11 10:06:20;;;;;;;61.83;20.48;;;6.20;99.90;;;;;;5053248;28;20029;-80
2023/03/11 10:08:52;;;;;;;63.60;20.02;;;6.20;99.90;;;;;;5055459;28;20100;-79
2023/03/11 10:11:26;;;;;;;126.47;40.53;;;6.20;99.90;;;;;;5055745;28;20460;-79
2023/03/11 10:14:30;;;;;;;161.02;47.55;;;6.20;99.90;;;;;;5055843;28;20080;-80
2023/03/11 10:17:19;;;;;;;152.55;45.38;;;6.20;99.90;;;;;;5052499;28;20400;-79
2023/03/11 10:20:27;;;;;;;85.22;26.13;;;6.30;99.90;;;;;;5054308;28;20112;-80
2023/03/11 10:23:01;;;;;;;93.78;35.95;;;6.10;99.90;;;;;;5029653;28;20095;-78
2023/03/11 10:25:36;;;;;;;148.48;49.72;;;6.10;99.90;;;;;;5054223;28;20063;-78
2023/03/11 10:28:12;;;;;;;175.45;61.00;;;6.10;99.90;;;;;;5055092;28;20025;-81
2023/03/11 10:30:46;;;;;;;152.10;56.53;;;6.10;99.90;;;;;;5054891;28;20063;-78
2023/03/11 10:33:24;;;;;;;38.05;15.63;;;6.00;99.90;;;;;;5055367;28;20021;-80
2023/03/11 10:35:53;;;;;;;42.75;14.88;;;6.00;99.90;;;;;;5053901;28;20344;-80
2023/03/11 10:38:24;;;;;;;33.45;10.10;;;6.10;99.90;;;;;;5055155;28;20032;-79
2023/03/11 10:40:54;;;;;;;28.08;9.93;;;6.10;99.90;;;;;;5054034;28;20432;-78
2023/03/11 10:43:37;;;;;;;31.75;13.73;;;6.10;99.90;;;;;;5054842;28;20039;-80
2023/03/11 10:46:17;;;;;;;25.10;9.95;;;6.10;99.90;;;;;;5054935;28;20013;-79
2023/03/11 10:48:42;;;;;;;8.48;3.50;;;6.10;99.90;;;;;;5054832;28;20025;-81
2023/03/11 10:51:23;;;;;;;50.47;21.83;;;6.10;99.90;;;;;;5054582;28;20032;-82
2023/03/11 10:53:52;;;;;;;78.70;30.73;;;6.00;99.90;;;;;;5053698;28;20474;-80
2023/03/11 10:56:39;;;;;;;38.83;16.75;;;6.10;99.90;;;;;;5054841;28;20017;-78
2023/03/11 10:59:22;;;;;;;38.60;16.67;;;6.00;99.90;;;;;;5054686;28;20040;-79
2023/03/11 11:02:18;;;;;;;28.88;13.45;;;6.10;99.90;;;;;;5053690;28;20371;-79
2023/03/11 11:04:44;;;;;;;19.90;8.43;;;6.10;99.90;;;;;;5054458;28;20029;-82
2023/03/11 11:07:40;;;;;;;37.08;13.00;;;6.20;99.90;;;;;;5054552;28;20029;-78
2023/03/11 11:10:11;;;;;;;26.20;10.25;;;6.20;99.90;;;;;;4996124;28;20166;-80
2023/03/11 11:12:56;;;;;;;26.15;12.57;;;6.10;99.90;;;;;;5012017;28;20042;-80
2023/03/11 11:15:22;;;;;;;25.38;10.90;;;6.10;99.90;;;;;;4996006;28;20540;-81
2023/03/11 11:17:48;;;;;;;46.28;19.95;;;6.10;99.90;;;;;;5012424;28;20042;-78
2023/03/11 11:20:19;;;;;;;32.42;15.18;;;6.10;99.90;;;;;;5012167;28;20132;-80
2023/03/11 11:22:57;;;;;;;25.83;12.32;;;6.10;99.90;;;;;;5012456;28;20030;-79
2023/03/11 11:25:34;;;;;;;31.10;15.35;;;6.20;99.90;;;;;;4995977;28;20065;-80
2023/03/11 11:28:04;;;;;;;49.97;22.50;;;6.20;99.90;;;;;;4995789;28;20477;-81
2023/03/11 11:30:30;;;;;;;37.58;19.45;;;6.30;99.90;;;;;;5012286;28;20053;-78
2023/03/11 11:33:19;;;;;;;15.30;7.68;;;6.30;99.90;;;;;;4995396;28;20065;-77
2023/03/11 11:36:02;;;;;;;17.75;9.85;;;6.20;99.90;;;;;;5012290;28;20112;-78
2023/03/11 11:38:30;;;;;;;12.13;6.43;;;6.30;99.90;;;;;;5012036;28;20030;-81
2023/03/11 11:41:01;;;;;;;29.30;13.18;;;6.40;99.90;;;;;;5011893;28;20045;-78
2023/03/11 11:43:29;;;;;;;56.38;27.63;;;6.40;99.90;;;;;;5012255;28;20465;-80
2023/03/11 11:46:01;;;;;;;95.13;44.95;;;6.50;99.90;;;;;;5023588;28;20037;-78
2023/03/11 11:48:48;;;;;;;46.13;22.38;;;6.50;99.90;;;;;;5053702;28;20031;-80
2023/03/11 11:51:28;;;;;;;33.85;16.20;;;6.50;99.90;;;;;;5054307;28;20090;-79
2023/03/11 11:53:59;;;;;;;78.13;36.22;;;6.60;99.90;;;;;;5052374;28;20025;-79
2023/03/11 11:56:25;;;;;;;46.80;27.00;;;6.60;99.90;;;;;;5054050;28;20066;-80
2023/03/11 11:58:54;;;;;;;25.98;14.82;;;6.60;99.90;;;;;;5053607;28;20104;-80
2023/03/11 12:01:45;;;;;;;39.17;18.88;;;6.50;99.90;;;;;;5053508;28;20021;-78
2023/03/11 12:04:38;;;;;;;29.65;14.13;;;6.60;99.90;;;;;;4995311;28;20511;-81
2023/03/11 12:07:30;;;;;;;24.60;9.88;;;6.60;99.90;;;;;;5012046;28;20088;-80
2023/03/11 12:10:07;;;;;;;32.55;13.68;;;6.50;99.90;;;;;;5011829;28;20141;-79
2023/03/11 12:12:49;;;;;;;54.00;19.13;;;6.50;99.90;;;;;;5011564;28;20050;-79
2023/03/11 12:15:23;;;;;;;22.10;8.38;;;6.50;99.90;;;;;;4995055;28;20033;-80
2023/03/11 12:17:51;;;;;;;25.90;12.63;;;6.40;99.90;;;;;;5011803;28;20073;-79
2023/03/11 12:20:41;;;;;;;30.70;13.38;;;6.50;99.90;;;;;;5011647;28;20032;-81
2023/03/11 12:23:35;;;;;;;58.17;21.42;;;6.40;99.90;;;;;;5011351;28;20029;-79
2023/03/11 12:26:18;;;;;;;68.45;27.40;;;6.40;99.90;;;;;;5011672;28;20141;-82
2023/03/11 12:28:49;;;;;;;55.63;21.48;;;6.50;99.90;;;;;;5011863;28;20503;-81
2023/03/11 12:31:15;;;;;;;51.33;18.95;;;6.40;99.90;;;;;;5015600;28;20057;-79
2023/03/11 12:33:50;;;;;;;17.65;7.75;;;6.50;99.90;;;;;;5015720;28;20112;-80
2023/03/11 12:36:28;;;;;;;24.05;9.57;;;6.40;99.90;;;;;;5015425;28;20021;-79
2023/03/11 12:38:54;;;;;;;28.83;10.30;;;6.50;99.90;;;;;;4999011;28;20057;-80
2023/03/11 12:42:09;;;;;;;36.00;14.35;;;6.60;99.90;;;;;;5030513;28;20025;-80
2023/03/11 12:44:34;;;;;;;28.63;15.30;;;6.60;99.90;;;;;;5014579;28;20484;-80
2023/03/11 12:47:12;;;;;;;23.35;10.63;;;6.60;99.90;;;;;;4998710;28;20026;-81